createdAt,value
2017-09-05T00:01:01.028Z,6.50
2017-09-05T00:03:28.593Z,9.33
2017-09-05T00:05:56.154Z,9.97
2017-09-05T00:08:26.497Z,11.63
2017-09-05T00:10:56.541Z,10.70
2017-09-05T00:13:25.799Z,11.87
2017-09-05T00:15:59.046Z,13.27
2017-09-05T00:21:32.188Z,16.00
2017-09-05T00:23:59.743Z,15.53
2017-09-05T00:26:27.307Z,16.63
2017-09-05T00:28:54.905Z,18.50
2017-09-05T00:31:22.448Z,18.60
2017-09-05T00:33:50.009Z,17.03
2017-09-05T00:36:17.583Z,17.20
2017-09-05T00:38:45.121Z,17.70
2017-09-05T00:41:12.675Z,17.93
2017-09-05T00:43:40.242Z,17.60
2017-09-05T00:46:07.782Z,18.40
2017-09-05T00:48:35.316Z,21.27
2017-09-05T00:51:02.888Z,19.13
2017-09-05T00:53:30.425Z,21.43
2017-09-05T00:55:57.993Z,22.53
2017-09-05T00:58:25.560Z,22.70
2017-09-05T01:00:53.092Z,22.40
2017-09-05T01:03:20.621Z,22.93
2017-09-05T01:05:48.202Z,21.90
2017-09-05T01:08:15.737Z,23.10
2017-09-05T01:10:43.283Z,23.73
2017-09-05T01:13:10.845Z,23.23
2017-09-05T01:15:38.407Z,24.80
2017-09-05T01:18:05.938Z,24.80
2017-09-05T01:20:33.498Z,25.07
2017-09-05T01:23:01.080Z,25.17
2017-09-05T01:25:28.621Z,26.13
2017-09-05T01:27:56.183Z,25.30
2017-09-05T01:30:23.738Z,25.97
2017-09-05T01:32:51.292Z,27.27
2017-09-05T01:35:18.882Z,24.67
2017-09-05T01:37:46.420Z,26.00
2017-09-05T01:40:13.968Z,26.60
2017-09-05T01:42:41.543Z,27.13
2017-09-05T01:45:09.095Z,25.10
2017-09-05T01:47:36.638Z,25.90
2017-09-05T01:50:04.209Z,23.50
2017-09-05T01:52:32.504Z,25.07
2017-09-05T01:55:00.056Z,24.33
2017-09-05T01:57:27.627Z,23.27
2017-09-05T01:59:55.183Z,23.40
2017-09-05T02:02:22.735Z,23.27
2017-09-05T02:04:51.076Z,22.30
2017-09-05T02:07:18.609Z,23.47
2017-09-05T02:09:46.172Z,24.60
2017-09-05T02:12:13.757Z,25.93
2017-09-05T02:14:41.294Z,25.60
2017-09-05T02:17:08.838Z,23.70
2017-09-05T02:19:36.436Z,26.20
2017-09-05T02:22:03.979Z,23.97
2017-09-05T02:24:31.543Z,23.60
2017-09-05T02:26:59.125Z,24.80
2017-09-05T02:29:26.680Z,25.07
2017-09-05T02:31:54.237Z,25.27
2017-09-05T02:34:21.798Z,23.53
2017-09-05T02:36:49.355Z,24.63
2017-09-05T02:39:16.888Z,23.60
2017-09-05T02:41:44.461Z,24.70
2017-09-05T02:44:12.012Z,24.07
2017-09-05T02:46:39.548Z,23.10
2017-09-05T02:49:07.124Z,23.40
2017-09-05T02:51:34.669Z,22.37
2017-09-05T02:54:02.208Z,22.97
2017-09-05T02:56:29.792Z,20.70
2017-09-05T02:58:57.354Z,20.63
2017-09-05T03:01:24.916Z,21.87
2017-09-05T03:03:52.484Z,20.70
2017-09-05T03:06:20.031Z,19.83
2017-09-05T03:08:47.567Z,19.47
2017-09-05T03:11:15.158Z,19.40
2017-09-05T03:13:42.688Z,18.50
2017-09-05T03:16:10.240Z,18.50
2017-09-05T03:18:37.828Z,18.53
2017-09-05T03:21:05.377Z,19.10
2017-09-05T03:23:32.927Z,18.50
2017-09-05T03:26:00.504Z,18.00
2017-09-05T03:28:28.060Z,18.43
2017-09-05T03:30:55.616Z,18.47
2017-09-05T03:33:23.177Z,16.27
2017-09-05T03:35:50.733Z,17.70
2017-09-05T03:38:18.269Z,18.20
2017-09-05T03:40:45.857Z,17.27
2017-09-05T03:43:13.416Z,15.67
2017-09-05T03:45:40.975Z,17.30
2017-09-05T03:48:08.564Z,17.13
2017-09-05T03:50:36.117Z,16.60
2017-09-05T03:53:03.667Z,16.40
2017-09-05T03:55:31.260Z,15.97
2017-09-05T03:57:58.819Z,16.20
2017-09-05T04:00:26.370Z,17.17
2017-09-05T04:02:53.953Z,14.90
2017-09-05T04:05:21.480Z,15.93
2017-09-05T04:07:49.022Z,14.53
2017-09-05T04:10:16.609Z,15.97
2017-09-05T04:12:44.163Z,15.97
2017-09-05T04:15:11.722Z,17.07
2017-09-05T04:17:39.281Z,16.57
2017-09-05T04:20:06.842Z,15.90
2017-09-05T04:22:34.394Z,15.73
2017-09-05T04:25:01.972Z,16.50
2017-09-05T04:27:29.532Z,16.93
2017-09-05T04:29:57.092Z,17.60
2017-09-05T04:32:24.649Z,16.73
2017-09-05T04:34:52.204Z,15.93
2017-09-05T04:37:19.755Z,17.33
2017-09-05T04:39:47.329Z,17.53
2017-09-05T04:42:14.855Z,16.60
2017-09-05T04:44:42.392Z,15.97
2017-09-05T04:47:09.975Z,16.47
2017-09-05T04:49:37.512Z,16.50
2017-09-05T04:52:05.045Z,15.60
2017-09-05T04:54:32.644Z,16.00
2017-09-05T04:57:00.203Z,15.57
2017-09-05T04:59:27.738Z,17.13
2017-09-05T05:01:55.309Z,17.10
2017-09-05T05:04:22.857Z,16.53
2017-09-05T05:06:50.396Z,16.40
2017-09-05T05:09:17.962Z,16.03
2017-09-05T05:11:45.515Z,15.57
2017-09-05T05:14:13.071Z,15.87
2017-09-05T05:16:40.656Z,16.37
2017-09-05T05:19:08.212Z,15.20
2017-09-05T05:21:35.763Z,14.33
2017-09-05T05:24:03.350Z,13.67
2017-09-05T05:26:30.909Z,13.70
2017-09-05T05:28:58.458Z,13.93
2017-09-05T05:31:26.040Z,15.40
2017-09-05T05:33:53.585Z,15.17
2017-09-05T05:36:21.141Z,15.67
2017-09-05T05:38:48.720Z,15.30
2017-09-05T05:41:16.259Z,14.80
2017-09-05T05:43:43.811Z,14.23
2017-09-05T05:46:11.408Z,16.20
2017-09-05T05:48:38.951Z,14.80
2017-09-05T05:51:06.489Z,15.40
2017-09-05T05:53:34.068Z,16.30
2017-09-05T05:56:01.620Z,15.37
2017-09-05T05:58:29.149Z,15.13
2017-09-05T06:00:56.724Z,14.03
2017-09-05T06:03:24.271Z,13.33
2017-09-05T06:05:51.829Z,15.70
2017-09-05T06:08:19.390Z,16.20
2017-09-05T06:10:46.927Z,15.80
2017-09-05T06:13:14.461Z,14.37
2017-09-05T06:15:42.025Z,13.67
2017-09-05T06:18:09.559Z,13.00
2017-09-05T06:20:37.097Z,15.47
2017-09-05T06:23:04.726Z,13.20
2017-09-05T06:25:32.259Z,14.00
2017-09-05T06:27:59.806Z,14.27
2017-09-05T06:30:27.368Z,14.67
2017-09-05T06:32:54.925Z,14.77
2017-09-05T06:35:22.505Z,14.07
2017-09-05T06:37:50.090Z,13.70
2017-09-05T06:40:17.643Z,14.70
2017-09-05T06:42:45.191Z,13.07
2017-09-05T06:45:12.762Z,12.70
2017-09-05T06:47:40.315Z,12.57
2017-09-05T06:50:07.866Z,12.30
2017-09-05T06:52:35.454Z,12.60
2017-09-05T06:55:03.041Z,13.10
2017-09-05T06:57:30.571Z,13.43
2017-09-05T06:59:58.919Z,13.23
2017-09-05T07:02:26.476Z,12.27
2017-09-05T07:04:54.036Z,12.60
2017-09-05T07:07:21.604Z,12.37
2017-09-05T07:09:49.621Z,12.70
2017-09-05T07:12:17.188Z,11.77
2017-09-05T07:14:44.768Z,12.30
2017-09-05T07:17:12.305Z,11.83
2017-09-05T07:19:39.851Z,11.47
2017-09-05T07:22:07.426Z,10.90
2017-09-05T07:24:34.962Z,11.57
2017-09-05T07:27:02.507Z,11.93
2017-09-05T07:29:30.071Z,11.27
2017-09-05T07:31:57.605Z,12.20
2017-09-05T07:34:25.151Z,12.33
2017-09-05T07:36:52.735Z,10.70
2017-09-05T07:39:20.280Z,11.63
2017-09-05T07:41:47.830Z,11.83
2017-09-05T07:44:15.398Z,10.50
2017-09-05T07:46:42.951Z,10.40
2017-09-05T07:49:10.481Z,10.07
2017-09-05T07:51:38.087Z,10.17
2017-09-05T07:54:05.645Z,9.67
2017-09-05T07:56:33.198Z,10.17
2017-09-05T07:59:00.755Z,9.70
2017-09-05T08:01:28.304Z,9.20
2017-09-05T08:03:56.602Z,9.20
2017-09-05T08:06:24.152Z,7.67
2017-09-05T08:08:51.697Z,9.03
2017-09-05T08:11:19.247Z,8.63
2017-09-05T08:13:46.823Z,9.07
2017-09-05T08:16:14.345Z,8.30
2017-09-05T08:18:41.891Z,8.43
2017-09-05T08:21:09.469Z,7.10
2017-09-05T08:23:37.023Z,7.10
2017-09-05T08:26:04.554Z,6.60
2017-09-05T08:28:32.128Z,6.30
2017-09-05T08:30:59.653Z,6.23
2017-09-05T08:33:27.192Z,7.10
2017-09-05T08:35:54.840Z,5.73
2017-09-05T08:38:22.377Z,6.50
2017-09-05T08:40:49.908Z,7.07
2017-09-05T08:43:17.487Z,7.60
2017-09-05T08:45:45.020Z,8.47
2017-09-05T08:48:12.558Z,7.37
2017-09-05T08:50:40.139Z,7.10
2017-09-05T08:53:08.433Z,7.70
2017-09-05T08:55:35.972Z,6.23
2017-09-05T08:58:03.537Z,5.67
2017-09-05T09:00:31.075Z,6.60
2017-09-05T09:02:58.616Z,6.10
2017-09-05T09:05:26.186Z,6.00
2017-09-05T09:07:53.715Z,6.30
2017-09-05T09:10:21.262Z,7.00
2017-09-05T09:12:48.820Z,6.00
2017-09-05T09:15:16.368Z,5.40
2017-09-05T09:17:43.916Z,7.03
2017-09-05T09:20:11.487Z,5.63
2017-09-05T09:22:39.013Z,6.20
2017-09-05T09:25:06.543Z,5.80
2017-09-05T09:27:34.109Z,5.60
2017-09-05T09:30:01.675Z,5.63
2017-09-05T09:32:29.219Z,6.07
2017-09-05T09:34:56.813Z,6.50
2017-09-05T09:37:24.356Z,5.03
2017-09-05T09:39:51.889Z,5.57
2017-09-05T09:42:19.463Z,5.97
2017-09-05T09:44:47.019Z,6.30
2017-09-05T09:47:14.569Z,6.50
2017-09-05T09:49:42.146Z,9.30
2017-09-05T09:52:09.711Z,6.00
2017-09-05T09:54:37.262Z,6.20
2017-09-05T09:57:04.843Z,6.10
2017-09-05T09:59:32.392Z,6.60
2017-09-05T10:01:59.917Z,5.10
2017-09-05T10:04:27.477Z,4.73
2017-09-05T10:06:55.029Z,4.30
2017-09-05T10:09:22.577Z,4.40
2017-09-05T10:11:50.152Z,4.17
2017-09-05T10:14:17.704Z,4.10
2017-09-05T10:16:45.234Z,4.23
2017-09-05T10:19:12.797Z,3.47
2017-09-05T10:21:40.346Z,3.90
2017-09-05T10:24:07.882Z,3.63
2017-09-05T10:26:35.441Z,4.10
2017-09-05T10:29:02.974Z,4.00
2017-09-05T10:31:30.528Z,3.50
2017-09-05T10:33:58.099Z,4.20
2017-09-05T10:36:25.622Z,3.30
2017-09-05T10:38:53.171Z,3.03
2017-09-05T10:41:20.742Z,2.90
2017-09-05T10:43:48.266Z,3.53
2017-09-05T10:46:15.851Z,3.27
2017-09-05T10:48:43.404Z,3.13
2017-09-05T10:51:10.935Z,3.20
2017-09-05T10:53:38.482Z,3.30
2017-09-05T10:56:06.056Z,2.80
2017-09-05T10:58:33.584Z,3.90
2017-09-05T11:01:01.132Z,3.27
2017-09-05T11:03:28.703Z,2.93
2017-09-05T11:05:56.252Z,2.60
2017-09-05T11:08:23.800Z,2.87
2017-09-05T11:10:51.367Z,3.47
2017-09-05T11:13:18.937Z,4.03
2017-09-05T11:15:46.457Z,2.83
2017-09-05T11:18:14.008Z,3.20
2017-09-05T11:20:41.548Z,3.47
2017-09-05T11:23:09.070Z,3.00
2017-09-05T11:25:36.633Z,3.10
2017-09-05T11:28:04.160Z,2.60
2017-09-05T11:30:31.682Z,2.57
2017-09-05T11:32:59.250Z,2.67
2017-09-05T11:35:26.804Z,3.00
2017-09-05T11:37:54.355Z,4.40
2017-09-05T11:40:21.904Z,2.97
2017-09-05T11:42:49.460Z,2.50
2017-09-05T11:45:17.012Z,3.13
2017-09-05T11:47:44.584Z,3.20
2017-09-05T11:50:12.127Z,2.83
2017-09-05T11:52:39.650Z,2.73
2017-09-05T11:55:07.222Z,2.50
2017-09-05T11:57:34.783Z,3.80
2017-09-05T12:00:02.328Z,3.43
2017-09-05T12:02:29.912Z,3.60
2017-09-05T12:04:57.436Z,3.43
2017-09-05T12:07:24.965Z,3.00
2017-09-05T12:09:52.548Z,3.67
2017-09-05T12:12:20.870Z,3.60
2017-09-05T12:14:48.391Z,3.70
2017-09-05T12:17:16.731Z,3.63
2017-09-05T12:19:44.276Z,3.70
2017-09-05T12:22:11.805Z,3.50
2017-09-05T12:24:39.375Z,4.50
2017-09-05T12:27:06.914Z,3.30
2017-09-05T12:29:35.223Z,3.60
2017-09-05T12:32:02.794Z,4.00
2017-09-05T12:34:30.317Z,4.27
2017-09-05T12:36:57.860Z,3.77
2017-09-05T12:39:25.428Z,3.40
2017-09-05T12:41:52.972Z,3.83
2017-09-05T12:44:20.501Z,2.87
2017-09-05T12:46:48.820Z,3.13
2017-09-05T12:49:16.357Z,3.60
2017-09-05T12:51:43.889Z,3.30
2017-09-05T12:54:11.463Z,3.53
2017-09-05T12:56:38.994Z,3.93
2017-09-05T12:59:06.524Z,4.30
2017-09-05T13:01:34.116Z,4.63
2017-09-05T13:04:01.640Z,4.87
2017-09-05T13:06:29.178Z,4.40
2017-09-05T13:08:56.732Z,5.10
2017-09-05T13:11:24.278Z,4.73
2017-09-05T13:13:51.817Z,5.33
2017-09-05T13:16:20.138Z,5.10
2017-09-05T13:18:47.672Z,4.20
2017-09-05T13:21:15.222Z,4.87
2017-09-05T13:23:42.799Z,4.60
2017-09-05T13:26:10.324Z,4.40
2017-09-05T13:28:37.927Z,4.53
2017-09-05T13:31:05.488Z,4.73
2017-09-05T13:33:33.021Z,4.00
2017-09-05T13:36:00.577Z,3.77
2017-09-05T13:38:28.231Z,4.50
2017-09-05T13:40:55.776Z,3.60
2017-09-05T13:43:23.395Z,4.10
2017-09-05T13:45:50.990Z,3.87
2017-09-05T13:48:19.876Z,4.27
2017-09-05T13:50:47.540Z,4.43
2017-09-05T13:53:15.348Z,3.80
2017-09-05T13:55:42.901Z,4.20
2017-09-05T13:58:10.537Z,4.70
2017-09-05T14:00:38.091Z,4.30
2017-09-05T14:03:05.618Z,3.80
2017-09-05T14:05:33.160Z,4.87
2017-09-05T14:08:00.732Z,3.93
2017-09-05T14:10:28.264Z,4.00
2017-09-05T14:12:55.804Z,4.40
2017-09-05T14:15:23.371Z,4.30
2017-09-05T14:17:50.910Z,3.70
2017-09-05T14:20:18.443Z,3.50
2017-09-05T14:22:46.020Z,3.43
2017-09-05T14:25:13.544Z,3.73
2017-09-05T14:27:41.064Z,4.40
2017-09-05T14:30:08.648Z,3.77
2017-09-05T14:32:36.192Z,4.27
2017-09-05T14:35:03.716Z,4.83
2017-09-05T14:37:31.273Z,3.97
2017-09-05T14:39:58.806Z,4.10
2017-09-05T14:42:26.354Z,4.60
2017-09-05T14:44:53.918Z,3.80
2017-09-05T14:47:21.472Z,4.10
2017-09-05T14:49:49.014Z,4.83
2017-09-05T14:52:16.593Z,4.37
2017-09-05T14:54:44.134Z,3.90
2017-09-05T14:57:11.663Z,3.57
2017-09-05T14:59:39.256Z,3.60
2017-09-05T15:02:06.807Z,3.63
2017-09-05T15:04:34.338Z,4.00
2017-09-05T15:07:01.919Z,3.67
2017-09-05T15:09:29.449Z,3.87
2017-09-05T15:11:56.980Z,3.60
2017-09-05T15:14:24.559Z,3.70
2017-09-05T15:16:52.096Z,3.70
2017-09-05T15:19:19.652Z,3.83
2017-09-05T15:21:47.218Z,4.80
2017-09-05T15:24:14.748Z,4.67
2017-09-05T15:26:42.286Z,4.40
2017-09-05T15:29:09.843Z,3.77
2017-09-05T15:31:37.381Z,4.20
2017-09-05T15:34:04.905Z,3.00
2017-09-05T15:36:33.220Z,3.30
2017-09-05T15:39:00.745Z,4.00
2017-09-05T15:41:28.293Z,3.80
2017-09-05T15:43:55.854Z,3.20
2017-09-05T15:46:23.393Z,4.63
2017-09-05T15:48:50.920Z,3.90
2017-09-05T15:51:18.470Z,3.83
2017-09-05T15:53:46.012Z,3.40
2017-09-05T15:56:13.537Z,3.63
2017-09-05T15:58:41.091Z,3.67
2017-09-05T16:01:08.629Z,3.40
2017-09-05T16:03:36.170Z,3.37
2017-09-05T16:06:03.740Z,3.00
2017-09-05T16:08:31.273Z,3.20
2017-09-05T16:10:58.815Z,3.30
2017-09-05T16:13:26.377Z,3.17
2017-09-05T16:15:53.924Z,3.23
2017-09-05T16:18:21.452Z,3.03
2017-09-05T16:20:49.027Z,3.40
2017-09-05T16:23:16.576Z,3.60
2017-09-05T16:25:44.108Z,3.53
2017-09-05T16:28:11.695Z,3.47
2017-09-05T16:30:39.238Z,3.80
2017-09-05T16:33:06.785Z,3.67
2017-09-05T16:35:34.349Z,3.30
2017-09-05T16:38:01.892Z,3.73
2017-09-05T16:40:29.417Z,3.40
2017-09-05T16:42:56.969Z,3.70
2017-09-05T16:45:24.512Z,3.83
2017-09-05T16:47:52.043Z,2.90
2017-09-05T16:50:19.616Z,2.90
2017-09-05T16:52:47.163Z,3.20
2017-09-05T16:55:14.698Z,3.40
2017-09-05T16:57:42.476Z,3.33
2017-09-05T17:00:10.043Z,3.83
2017-09-05T17:02:37.567Z,3.77
2017-09-05T17:05:05.144Z,3.93
2017-09-05T17:07:32.697Z,4.73
2017-09-05T17:10:00.376Z,3.80
2017-09-05T17:12:27.978Z,3.80
2017-09-05T17:14:55.508Z,4.57
2017-09-05T17:17:23.046Z,4.00
2017-09-05T17:19:50.602Z,4.80
2017-09-05T17:22:18.136Z,3.60
2017-09-05T17:24:45.685Z,4.53
2017-09-05T17:27:13.248Z,5.40
2017-09-05T17:29:40.778Z,5.43
2017-09-05T17:32:08.299Z,5.33
2017-09-05T17:34:35.879Z,7.13
2017-09-05T17:37:03.428Z,6.70
2017-09-05T17:39:30.958Z,5.20
2017-09-05T17:41:58.513Z,4.73
2017-09-05T17:44:26.045Z,4.60
2017-09-05T17:46:53.597Z,4.57
2017-09-05T17:49:21.154Z,5.37
2017-09-05T17:51:48.684Z,5.93
2017-09-05T17:54:16.227Z,5.97
2017-09-05T17:56:43.814Z,5.50
2017-09-05T17:59:11.377Z,4.80
2017-09-05T18:01:38.946Z,6.50
2017-09-05T18:04:07.481Z,12.40
2017-09-05T18:06:35.021Z,8.23
2017-09-05T18:09:02.668Z,5.43
2017-09-05T18:11:30.224Z,5.40
2017-09-05T18:13:57.789Z,5.90
2017-09-05T18:16:25.349Z,5.60
2017-09-05T18:18:53.015Z,6.00
2017-09-05T18:21:20.545Z,5.83
2017-09-05T18:23:48.089Z,6.43
2017-09-05T18:26:15.672Z,6.10
2017-09-05T18:28:43.218Z,8.03
2017-09-05T18:31:10.753Z,6.63
2017-09-05T18:33:38.327Z,6.23
2017-09-05T18:36:05.858Z,7.00
2017-09-05T18:38:33.416Z,6.80
2017-09-05T18:41:00.982Z,7.00
2017-09-05T18:43:28.512Z,6.60
2017-09-05T18:45:56.068Z,6.70
2017-09-05T18:48:23.650Z,6.00
2017-09-05T18:50:51.204Z,5.47
2017-09-05T18:53:18.742Z,6.00
2017-09-05T18:55:46.304Z,5.83
2017-09-05T18:58:13.859Z,6.20
2017-09-05T19:00:41.434Z,5.60
2017-09-05T19:03:09.003Z,5.87
2017-09-05T19:05:36.552Z,5.73
2017-09-05T19:08:04.094Z,5.70
2017-09-05T19:10:31.685Z,6.37
2017-09-05T19:12:59.240Z,6.70
2017-09-05T19:15:26.769Z,5.10
2017-09-05T19:17:54.347Z,5.70
2017-09-05T19:20:21.958Z,5.90
2017-09-05T19:22:49.491Z,5.40
2017-09-05T19:25:17.075Z,5.70
2017-09-05T19:27:44.602Z,4.90
2017-09-05T19:30:12.132Z,5.57
2017-09-05T19:32:39.708Z,5.77
2017-09-05T19:35:07.241Z,4.50
2017-09-05T19:37:34.764Z,4.93
2017-09-05T19:40:02.337Z,4.73
2017-09-05T19:42:29.913Z,5.40
2017-09-05T19:44:57.464Z,5.00
2017-09-05T19:47:25.046Z,5.83
2017-09-05T19:49:52.574Z,6.77
2017-09-05T19:52:20.120Z,8.03
2017-09-05T19:54:47.738Z,8.50
2017-09-05T19:57:15.270Z,6.27
2017-09-05T19:59:42.823Z,5.97
2017-09-05T20:02:10.381Z,5.10
2017-09-05T20:04:37.971Z,5.97
2017-09-05T20:07:05.514Z,5.83
2017-09-05T20:09:33.094Z,6.27
2017-09-05T20:12:00.617Z,7.20
2017-09-05T20:14:28.150Z,5.93
2017-09-05T20:16:55.737Z,7.27
2017-09-05T20:19:23.274Z,6.70
2017-09-05T20:21:50.800Z,7.47
2017-09-05T20:24:18.374Z,6.63
2017-09-05T20:26:45.935Z,7.87
2017-09-05T20:29:13.487Z,6.97
2017-09-05T22:52:08.113Z,17.10
2017-09-05T22:54:35.687Z,17.53
2017-09-05T22:57:03.299Z,17.80
2017-09-05T22:59:30.870Z,17.70
2017-09-05T23:01:58.428Z,17.70
2017-09-05T23:04:26.017Z,17.60
2017-09-05T23:06:54.361Z,16.20
2017-09-05T23:09:21.934Z,16.17
2017-09-05T23:11:49.524Z,16.20
2017-09-05T23:14:17.084Z,16.80
2017-09-05T23:16:44.678Z,17.63
2017-09-05T23:19:12.292Z,18.17
2017-09-05T23:21:39.884Z,18.93
2017-09-05T23:24:07.464Z,18.53
2017-09-05T23:26:35.067Z,17.13
2017-09-05T23:29:02.657Z,17.07
2017-09-05T23:31:31.018Z,18.50
2017-09-05T23:33:58.617Z,17.40
2017-09-05T23:36:26.188Z,17.10
2017-09-05T23:38:53.745Z,17.87
2017-09-05T23:41:21.347Z,16.67
2017-09-05T23:43:48.919Z,17.93
2017-09-05T23:46:16.513Z,20.03
2017-09-05T23:48:44.128Z,17.77
2017-09-05T23:51:11.717Z,18.07
2017-09-05T23:53:39.312Z,16.40
2017-09-05T23:56:07.065Z,19.93
2017-09-05T23:58:34.674Z,17.40
